Terminal Aerodrome Forecast
Issued by NWS

Home | Current Version | Previous Version | Graphics & Text | Print | Product List | Glossary On
Versions: 1 2 3 4 5 6 7 8 9 10 11 12 13 14 15 16 17
000
FTUS43 KMPX 222324
TAFAXN
TAF
KAXN 222324Z 2300/2324 17009KT P6SM BKN070
     FM230300 22005KT P6SM SCT100
     FM230600 32006KT P6SM SKC
     FM231400 20008KT P6SM FEW100=

USA.gov is the U.S. government's official web portal to all federal, state and local government web resources and services.